Overview Statistics Trail Chart Weather Telemetry Raw packets
 

This is the latest recevied weather packets stored in our database for station/object OE6ATD-13. If no packets are shown the sender has not sent any weather packets the latest 10 day(s).

<< 44 45 46 47 48 49 50 >>
Time Temp. Humidity Pressure Rain* Wind** Luminosity Snow
1788022821 26.67° C 40% 1016.3 hPa 0 mm - 28 W/m² -
1788022225 27.22° C 34% 1016.3 hPa 0 mm - 38 W/m² -
1788021621 27.78° C 33% 1016.3 hPa 0 mm - 50 W/m² -
1788021017 27.78° C 33% 1016.4 hPa 0 mm - 58 W/m² -
1788020427 28.33° C 32% 1016.5 hPa 0 mm - 70 W/m² -
1788019823 27.78° C 32% 1016.4 hPa 0 mm - 86 W/m² -
1788019219 28.33° C 32% 1016.6 hPa 0 mm - 103 W/m² -
1788018630 28.33° C 33% 1016.6 hPa 0 mm - 119 W/m² -
1788018026 28.33° C 33% 1016.7 hPa 0 mm - 151 W/m² -
1788017420 27.78° C 35% 1016.5 hPa 0 mm - 182 W/m² -
1788016815 28.33° C 33% 1016.6 hPa 0 mm - 214 W/m² -
1788016226 28.33° C 33% 1016.8 hPa 0 mm - 251 W/m² -
1788015622 28.33° C 33% 1016.8 hPa 0 mm - 280 W/m² -
1788015018 28.33° C 32% 1016.8 hPa 0 mm - 248 W/m² -
1788014429 28.89° C 33% 1016.8 hPa 0 mm - 364 W/m² -
1788013825 29.44° C 30% 1016.9 hPa 0 mm - 403 W/m² -
1788013220 28.89° C 32% 1016.9 hPa 0 mm - 439 W/m² -
1788012616 28.89° C 33% 1016.9 hPa 0 mm - 477 W/m² -
1788012027 28.33° C 33% 1017 hPa 0 mm - 501 W/m² -
1788011430 27.78° C 38% 1017.1 hPa 0 mm - 538 W/m² -
1788010826 28.33° C 39% 1017.2 hPa 0 mm - 586 W/m² -
1788010222 26.67° C 45% 1017.2 hPa 0 mm - 646 W/m² -
1788009620 26.11° C 46% 1017.4 hPa 0 mm - 438 W/m² -
1788009028 26.11° C 46% 1017.5 hPa 0 mm - 370 W/m² -
1788008424 26.11° C 47% 1017.5 hPa 0 mm - 297 W/m² -

* Rain latest hour (hover to see other rain measurements)
** Current wind speed in m/s (hover to see current wind gust speed)